sensor_id;sensor_type;location;lat;lon;timestamp;pressure;altitude;pressure_sealevel;temperature;humidity
48882;BME280;57063;51.406;-2.402;2023-05-21T00:00:50;101276.34;;;10.53;69.53
48882;BME280;57063;51.406;-2.402;2023-05-21T00:03:17;101272.97;;;10.50;68.51
48882;BME280;57063;51.406;-2.402;2023-05-21T00:05:43;101265.56;;;10.43;70.23
48882;BME280;57063;51.406;-2.402;2023-05-21T00:08:11;101274.25;;;10.42;70.02
48882;BME280;57063;51.406;-2.402;2023-05-21T00:10:36;101273.25;;;10.44;69.05
48882;BME280;57063;51.406;-2.402;2023-05-21T00:13:01;101269.41;;;10.34;69.23
48882;BME280;57063;51.406;-2.402;2023-05-21T00:15:26;101275.41;;;10.35;68.74
48882;BME280;57063;51.406;-2.402;2023-05-21T00:17:52;101274.94;;;10.25;69.90
48882;BME280;57063;51.406;-2.402;2023-05-21T00:20:17;101269.50;;;10.11;70.93
48882;BME280;57063;51.406;-2.402;2023-05-21T00:22:42;101279.38;;;10.21;70.88
48882;BME280;57063;51.406;-2.402;2023-05-21T00:25:08;101269.19;;;10.18;70.75
48882;BME280;57063;51.406;-2.402;2023-05-21T00:27:33;101262.41;;;10.16;70.63
48882;BME280;57063;51.406;-2.402;2023-05-21T00:29:59;101264.81;;;10.20;69.97
48882;BME280;57063;51.406;-2.402;2023-05-21T00:32:24;101259.88;;;10.14;69.60
48882;BME280;57063;51.406;-2.402;2023-05-21T00:34:50;101263.13;;;9.99;70.26
48882;BME280;57063;51.406;-2.402;2023-05-21T00:37:15;101261.19;;;9.83;70.91
48882;BME280;57063;51.406;-2.402;2023-05-21T00:39:40;101263.94;;;9.99;70.35
48882;BME280;57063;51.406;-2.402;2023-05-21T00:42:05;101260.69;;;9.96;70.81
48882;BME280;57063;51.406;-2.402;2023-05-21T00:44:31;101259.38;;;9.85;70.40
48882;BME280;57063;51.406;-2.402;2023-05-21T00:47:02;101268.84;;;9.85;70.89
48882;BME280;57063;51.406;-2.402;2023-05-21T00:49:28;101273.63;;;9.94;69.32
48882;BME280;57063;51.406;-2.402;2023-05-21T00:51:54;101265.25;;;9.89;69.97
48882;BME280;57063;51.406;-2.402;2023-05-21T00:54:20;101265.63;;;9.80;70.40
48882;BME280;57063;51.406;-2.402;2023-05-21T00:56:46;101270.94;;;9.75;70.81
48882;BME280;57063;51.406;-2.402;2023-05-21T00:59:11;101264.13;;;9.74;69.82
48882;BME280;57063;51.406;-2.402;2023-05-21T01:01:37;101268.31;;;9.77;69.94
48882;BME280;57063;51.406;-2.402;2023-05-21T01:04:03;101262.66;;;9.69;69.75
48882;BME280;57063;51.406;-2.402;2023-05-21T01:06:28;101263.53;;;9.68;70.38
48882;BME280;57063;51.406;-2.402;2023-05-21T01:08:54;101269.16;;;9.77;69.79
48882;BME280;57063;51.406;-2.402;2023-05-21T01:11:25;101273.00;;;9.67;70.84
48882;BME280;57063;51.406;-2.402;2023-05-21T01:13:55;101269.25;;;9.54;70.97
48882;BME280;57063;51.406;-2.402;2023-05-21T01:16:21;101270.44;;;9.45;71.70
48882;BME280;57063;51.406;-2.402;2023-05-21T01:18:47;101267.94;;;9.43;71.00
48882;BME280;57063;51.406;-2.402;2023-05-21T01:21:12;101266.38;;;9.39;72.07
48882;BME280;57063;51.406;-2.402;2023-05-21T01:23:41;101263.03;;;9.37;71.81
48882;BME280;57063;51.406;-2.402;2023-05-21T01:26:06;101256.31;;;9.33;71.76
48882;BME280;57063;51.406;-2.402;2023-05-21T01:28:32;101262.38;;;9.32;72.75
48882;BME280;57063;51.406;-2.402;2023-05-21T01:30:59;101260.94;;;9.25;72.87
48882;BME280;57063;51.406;-2.402;2023-05-21T01:33:30;101259.00;;;9.30;72.06
48882;BME280;57063;51.406;-2.402;2023-05-21T01:35:59;101257.75;;;9.18;72.54
48882;BME280;57063;51.406;-2.402;2023-05-21T01:40:59;101259.78;;;9.10;73.49
48882;BME280;57063;51.406;-2.402;2023-05-21T01:43:30;101258.94;;;8.88;74.62
48882;BME280;57063;51.406;-2.402;2023-05-21T01:45:56;101253.88;;;8.85;75.69
48882;BME280;57063;51.406;-2.402;2023-05-21T01:48:22;101255.66;;;8.83;75.64
48882;BME280;57063;51.406;-2.402;2023-05-21T01:50:49;101260.03;;;8.57;77.60
48882;BME280;57063;51.406;-2.402;2023-05-21T01:53:15;101256.34;;;8.64;77.26
48882;BME280;57063;51.406;-2.402;2023-05-21T01:55:41;101253.66;;;8.67;77.62
48882;BME280;57063;51.406;-2.402;2023-05-21T01:58:06;101255.16;;;8.73;77.14
48882;BME280;57063;51.406;-2.402;2023-05-21T02:00:32;101249.13;;;8.74;77.76
48882;BME280;57063;51.406;-2.402;2023-05-21T02:02:58;101258.09;;;8.64;77.27
48882;BME280;57063;51.406;-2.402;2023-05-21T02:05:23;101257.19;;;8.65;77.10
48882;BME280;57063;51.406;-2.402;2023-05-21T02:07:49;101251.13;;;8.42;77.92
48882;BME280;57063;51.406;-2.402;2023-05-21T02:10:15;101260.88;;;8.57;76.82
48882;BME280;57063;51.406;-2.402;2023-05-21T02:12:41;101259.31;;;8.53;77.29
48882;BME280;57063;51.406;-2.402;2023-05-21T02:15:07;101248.41;;;8.47;78.39
48882;BME280;57063;51.406;-2.402;2023-05-21T02:17:32;101248.56;;;8.42;78.60
48882;BME280;57063;51.406;-2.402;2023-05-21T02:20:01;101245.19;;;8.39;79.14
48882;BME280;57063;51.406;-2.402;2023-05-21T02:22:45;101257.31;;;8.36;79.48
48882;BME280;57063;51.406;-2.402;2023-05-21T02:25:11;101253.19;;;8.31;79.24
48882;BME280;57063;51.406;-2.402;2023-05-21T02:27:37;101252.63;;;8.23;80.10
48882;BME280;57063;51.406;-2.402;2023-05-21T02:30:03;101251.13;;;8.17;80.89
48882;BME280;57063;51.406;-2.402;2023-05-21T02:32:30;101253.06;;;8.10;81.25
48882;BME280;57063;51.406;-2.402;2023-05-21T02:34:59;101263.03;;;8.20;80.93
48882;BME280;57063;51.406;-2.402;2023-05-21T02:37:25;101258.25;;;8.09;82.39
48882;BME280;57063;51.406;-2.402;2023-05-21T02:39:53;101262.34;;;8.14;82.47
48882;BME280;57063;51.406;-2.402;2023-05-21T02:42:18;101260.78;;;8.10;82.35
48882;BME280;57063;51.406;-2.402;2023-05-21T02:44:44;101246.19;;;8.11;82.58
48882;BME280;57063;51.406;-2.402;2023-05-21T02:47:09;101252.56;;;7.99;82.67
48882;BME280;57063;51.406;-2.402;2023-05-21T02:49:36;101260.97;;;8.04;82.56
48882;BME280;57063;51.406;-2.402;2023-05-21T02:52:01;101257.09;;;7.92;83.67
48882;BME280;57063;51.406;-2.402;2023-05-21T02:54:26;101264.00;;;7.90;83.48
48882;BME280;57063;51.406;-2.402;2023-05-21T02:56:52;101263.16;;;7.90;83.33
48882;BME280;57063;51.406;-2.402;2023-05-21T02:59:17;101263.38;;;7.84;83.60
48882;BME280;57063;51.406;-2.402;2023-05-21T03:01:42;101260.22;;;7.76;83.79
48882;BME280;57063;51.406;-2.402;2023-05-21T03:04:09;101266.44;;;7.68;83.72
48882;BME280;57063;51.406;-2.402;2023-05-21T03:06:34;101267.22;;;7.70;84.30
48882;BME280;57063;51.406;-2.402;2023-05-21T03:09:01;101267.69;;;7.55;84.28
48882;BME280;57063;51.406;-2.402;2023-05-21T03:11:26;101265.53;;;7.43;85.04
48882;BME280;57063;51.406;-2.402;2023-05-21T03:13:52;101263.94;;;7.39;85.66
48882;BME280;57063;51.406;-2.402;2023-05-21T03:16:17;101257.91;;;7.40;85.18
48882;BME280;57063;51.406;-2.402;2023-05-21T03:18:42;101261.41;;;7.37;84.89
48882;BME280;57063;51.406;-2.402;2023-05-21T03:21:08;101257.09;;;7.39;84.47
48882;BME280;57063;51.406;-2.402;2023-05-21T03:23:37;101254.56;;;7.38;85.16
48882;BME280;57063;51.406;-2.402;2023-05-21T03:26:02;101254.56;;;7.38;84.75
48882;BME280;57063;51.406;-2.402;2023-05-21T03:28:27;101256.94;;;7.44;84.19
48882;BME280;57063;51.406;-2.402;2023-05-21T03:30:52;101255.25;;;7.43;83.52
48882;BME280;57063;51.406;-2.402;2023-05-21T03:33:18;101253.72;;;7.37;84.46
48882;BME280;57063;51.406;-2.402;2023-05-21T03:35:43;101246.16;;;7.33;84.02
48882;BME280;57063;51.406;-2.402;2023-05-21T03:38:09;101239.72;;;7.46;82.17
48882;BME280;57063;51.406;-2.402;2023-05-21T03:40:34;101236.88;;;7.55;82.66
48882;BME280;57063;51.406;-2.402;2023-05-21T03:42:59;101237.16;;;7.46;83.63
48882;BME280;57063;51.406;-2.402;2023-05-21T03:45:24;101243.19;;;7.45;83.67
48882;BME280;57063;51.406;-2.402;2023-05-21T03:47:50;101232.97;;;7.43;83.70
48882;BME280;57063;51.406;-2.402;2023-05-21T03:50:15;101234.69;;;7.43;84.19
48882;BME280;57063;51.406;-2.402;2023-05-21T03:52:41;101242.31;;;7.46;83.84
48882;BME280;57063;51.406;-2.402;2023-05-21T03:55:06;101233.44;;;7.28;83.49
48882;BME280;57063;51.406;-2.402;2023-05-21T03:57:31;101236.00;;;7.29;83.76
48882;BME280;57063;51.406;-2.402;2023-05-21T03:59:56;101231.81;;;7.25;84.13
48882;BME280;57063;51.406;-2.402;2023-05-21T04:02:24;101236.78;;;7.32;82.96
48882;BME280;57063;51.406;-2.402;2023-05-21T04:04:49;101236.06;;;7.26;83.44
48882;BME280;57063;51.406;-2.402;2023-05-21T04:07:15;101242.63;;;7.37;82.03
48882;BME280;57063;51.406;-2.402;2023-05-21T04:09:43;101238.41;;;7.34;82.47
48882;BME280;57063;51.406;-2.402;2023-05-21T04:12:08;101237.78;;;7.26;82.67
48882;BME280;57063;51.406;-2.402;2023-05-21T04:14:34;101242.09;;;7.25;81.92
48882;BME280;57063;51.406;-2.402;2023-05-21T04:17:00;101233.31;;;7.33;81.87
48882;BME280;57063;51.406;-2.402;2023-05-21T04:19:28;101221.41;;;7.30;82.07
48882;BME280;57063;51.406;-2.402;2023-05-21T04:21:53;101225.03;;;7.24;82.91
48882;BME280;57063;51.406;-2.402;2023-05-21T04:24:19;101223.53;;;7.17;82.38
48882;BME280;57063;51.406;-2.402;2023-05-21T04:26:44;101222.44;;;7.24;82.60
48882;BME280;57063;51.406;-2.402;2023-05-21T04:29:10;101219.69;;;7.31;82.00
48882;BME280;57063;51.406;-2.402;2023-05-21T04:31:35;101213.56;;;7.35;82.38
48882;BME280;57063;51.406;-2.402;2023-05-21T04:34:00;101215.44;;;7.29;82.44
48882;BME280;57063;51.406;-2.402;2023-05-21T04:36:26;101223.97;;;7.30;81.98
48882;BME280;57063;51.406;-2.402;2023-05-21T04:38:52;101225.50;;;7.36;81.65
48882;BME280;57063;51.406;-2.402;2023-05-21T04:41:18;101222.78;;;7.40;81.22
48882;BME280;57063;51.406;-2.402;2023-05-21T04:43:45;101214.81;;;7.49;80.78
48882;BME280;57063;51.406;-2.402;2023-05-21T04:46:10;101219.69;;;7.57;80.32
48882;BME280;57063;51.406;-2.402;2023-05-21T04:48:35;101225.63;;;7.59;80.09
48882;BME280;57063;51.406;-2.402;2023-05-21T04:51:01;101229.13;;;7.57;81.04
48882;BME280;57063;51.406;-2.402;2023-05-21T04:53:29;101229.84;;;7.60;80.58
48882;BME280;57063;51.406;-2.402;2023-05-21T04:55:55;101229.16;;;7.55;81.22
48882;BME280;57063;51.406;-2.402;2023-05-21T04:58:20;101230.06;;;7.54;81.42
48882;BME280;57063;51.406;-2.402;2023-05-21T05:00:45;101223.88;;;7.60;81.41
48882;BME280;57063;51.406;-2.402;2023-05-21T05:03:11;101218.56;;;7.66;80.43
48882;BME280;57063;51.406;-2.402;2023-05-21T05:05:36;101218.47;;;7.69;81.28
48882;BME280;57063;51.406;-2.402;2023-05-21T05:08:01;101220.72;;;7.78;80.62
48882;BME280;57063;51.406;-2.402;2023-05-21T05:10:28;101216.28;;;7.83;79.45
48882;BME280;57063;51.406;-2.402;2023-05-21T05:12:53;101213.31;;;7.94;78.40
48882;BME280;57063;51.406;-2.402;2023-05-21T05:15:18;101209.59;;;7.78;79.68
48882;BME280;57063;51.406;-2.402;2023-05-21T05:17:43;101222.34;;;7.81;81.71
48882;BME280;57063;51.406;-2.402;2023-05-21T05:20:09;101217.22;;;7.81;81.25
48882;BME280;57063;51.406;-2.402;2023-05-21T05:22:34;101219.53;;;7.88;81.29
48882;BME280;57063;51.406;-2.402;2023-05-21T05:25:00;101216.66;;;7.98;79.04
48882;BME280;57063;51.406;-2.402;2023-05-21T05:27:25;101217.31;;;8.03;77.70
48882;BME280;57063;51.406;-2.402;2023-05-21T05:29:50;101214.69;;;8.04;79.37
48882;BME280;57063;51.406;-2.402;2023-05-21T05:32:16;101205.97;;;8.08;78.22
48882;BME280;57063;51.406;-2.402;2023-05-21T05:34:42;101206.94;;;8.06;78.52
48882;BME280;57063;51.406;-2.402;2023-05-21T05:37:07;101220.25;;;8.17;77.46
48882;BME280;57063;51.406;-2.402;2023-05-21T05:39:32;101214.22;;;8.18;78.53
48882;BME280;57063;51.406;-2.402;2023-05-21T05:41:57;101215.00;;;8.20;79.52
48882;BME280;57063;51.406;-2.402;2023-05-21T05:44:23;101216.97;;;8.37;75.46
48882;BME280;57063;51.406;-2.402;2023-05-21T05:46:48;101218.25;;;8.50;74.43
48882;BME280;57063;51.406;-2.402;2023-05-21T05:49:13;101226.75;;;8.52;76.21
48882;BME280;57063;51.406;-2.402;2023-05-21T05:51:39;101232.72;;;8.53;77.09
48882;BME280;57063;51.406;-2.402;2023-05-21T05:54:04;101218.84;;;8.57;77.18
48882;BME280;57063;51.406;-2.402;2023-05-21T05:56:29;101226.41;;;8.62;77.88
48882;BME280;57063;51.406;-2.402;2023-05-21T05:58:54;101232.91;;;8.72;75.02
48882;BME280;57063;51.406;-2.402;2023-05-21T06:01:20;101224.06;;;8.79;74.49
48882;BME280;57063;51.406;-2.402;2023-05-21T06:03:48;101234.00;;;8.88;73.98
48882;BME280;57063;51.406;-2.402;2023-05-21T06:06:13;101228.53;;;8.97;74.47
48882;BME280;57063;51.406;-2.402;2023-05-21T06:08:39;101227.13;;;9.11;75.99
48882;BME280;57063;51.406;-2.402;2023-05-21T06:11:04;101229.38;;;9.20;73.06
48882;BME280;57063;51.406;-2.402;2023-05-21T06:13:29;101227.75;;;9.39;74.53
48882;BME280;57063;51.406;-2.402;2023-05-21T06:15:55;101225.69;;;9.48;71.96
48882;BME280;57063;51.406;-2.402;2023-05-21T06:18:21;101224.41;;;9.58;71.32
48882;BME280;57063;51.406;-2.402;2023-05-21T06:20:46;101232.81;;;9.83;70.23
48882;BME280;57063;51.406;-2.402;2023-05-21T06:23:11;101226.94;;;11.71;65.15
48882;BME280;57063;51.406;-2.402;2023-05-21T06:25:36;101230.19;;;13.84;56.78
48882;BME280;57063;51.406;-2.402;2023-05-21T06:28:02;101225.50;;;14.48;52.83
48882;BME280;57063;51.406;-2.402;2023-05-21T06:30:27;101228.56;;;15.37;50.80
48882;BME280;57063;51.406;-2.402;2023-05-21T06:32:52;101225.25;;;16.26;49.65
48882;BME280;57063;51.406;-2.402;2023-05-21T06:35:17;101231.41;;;16.88;46.96
48882;BME280;57063;51.406;-2.402;2023-05-21T06:37:42;101230.56;;;16.75;48.26
48882;BME280;57063;51.406;-2.402;2023-05-21T06:40:08;101226.59;;;17.89;45.26
48882;BME280;57063;51.406;-2.402;2023-05-21T06:42:33;101234.94;;;18.28;44.25
48882;BME280;57063;51.406;-2.402;2023-05-21T06:44:58;101222.25;;;18.12;43.54
48882;BME280;57063;51.406;-2.402;2023-05-21T06:47:24;101233.34;;;19.37;42.71
48882;BME280;57063;51.406;-2.402;2023-05-21T06:49:49;101242.00;;;19.05;42.45
48882;BME280;57063;51.406;-2.402;2023-05-21T06:52:14;101236.38;;;19.95;40.78
48882;BME280;57063;51.406;-2.402;2023-05-21T06:54:40;101249.22;;;19.45;41.95
48882;BME280;57063;51.406;-2.402;2023-05-21T06:57:06;101255.09;;;19.91;40.97
48882;BME280;57063;51.406;-2.402;2023-05-21T06:59:31;101256.63;;;19.40;41.22
48882;BME280;57063;51.406;-2.402;2023-05-21T07:01:56;101251.28;;;20.04;39.84
48882;BME280;57063;51.406;-2.402;2023-05-21T07:04:22;101251.66;;;20.21;39.65
48882;BME280;57063;51.406;-2.402;2023-05-21T07:06:47;101254.69;;;19.21;40.83
48882;BME280;57063;51.406;-2.402;2023-05-21T07:09:12;101251.06;;;19.01;42.03
48882;BME280;57063;51.406;-2.402;2023-05-21T07:11:38;101246.66;;;19.01;40.86
48882;BME280;57063;51.406;-2.402;2023-05-21T07:14:03;101230.63;;;18.72;41.76
48882;BME280;57063;51.406;-2.402;2023-05-21T07:16:28;101236.81;;;19.26;41.62
48882;BME280;57063;51.406;-2.402;2023-05-21T07:18:53;101238.16;;;19.74;39.61
48882;BME280;57063;51.406;-2.402;2023-05-21T07:21:19;101239.75;;;20.07;39.72
48882;BME280;57063;51.406;-2.402;2023-05-21T07:23:44;101240.16;;;19.81;40.70
48882;BME280;57063;51.406;-2.402;2023-05-21T07:26:09;101237.69;;;20.10;40.95
48882;BME280;57063;51.406;-2.402;2023-05-21T07:28:35;101235.75;;;20.43;39.87
48882;BME280;57063;51.406;-2.402;2023-05-21T07:31:00;101231.44;;;20.33;40.52
48882;BME280;57063;51.406;-2.402;2023-05-21T07:33:25;101231.06;;;20.47;41.39
48882;BME280;57063;51.406;-2.402;2023-05-21T07:35:51;101244.38;;;20.24;40.35
48882;BME280;57063;51.406;-2.402;2023-05-21T07:38:16;101234.63;;;19.63;41.73
48882;BME280;57063;51.406;-2.402;2023-05-21T07:40:42;101243.19;;;20.38;40.69
48882;BME280;57063;51.406;-2.402;2023-05-21T07:43:07;101236.31;;;19.85;41.35
48882;BME280;57063;51.406;-2.402;2023-05-21T07:45:32;101245.81;;;20.69;40.22
48882;BME280;57063;51.406;-2.402;2023-05-21T07:47:57;101238.41;;;21.13;38.69
48882;BME280;57063;51.406;-2.402;2023-05-21T07:50:23;101243.34;;;20.87;39.33
48882;BME280;57063;51.406;-2.402;2023-05-21T07:52:49;101247.84;;;21.45;38.77
48882;BME280;57063;51.406;-2.402;2023-05-21T07:55:14;101247.34;;;21.98;38.32
48882;BME280;57063;51.406;-2.402;2023-05-21T07:57:39;101244.06;;;22.33;37.89
48882;BME280;57063;51.406;-2.402;2023-05-21T08:00:05;101232.09;;;21.45;38.86
48882;BME280;57063;51.406;-2.402;2023-05-21T08:02:33;101244.41;;;22.20;37.37
48882;BME280;57063;51.406;-2.402;2023-05-21T08:04:58;101240.53;;;22.70;37.33
48882;BME280;57063;51.406;-2.402;2023-05-21T08:07:25;101237.19;;;21.56;39.66
48882;BME280;57063;51.406;-2.402;2023-05-21T08:09:51;101243.81;;;21.70;38.18
48882;BME280;57063;51.406;-2.402;2023-05-21T08:12:18;101232.88;;;21.35;39.87
48882;BME280;57063;51.406;-2.402;2023-05-21T08:14:43;101235.53;;;21.55;39.67
48882;BME280;57063;51.406;-2.402;2023-05-21T08:17:09;101235.25;;;21.58;39.05
48882;BME280;57063;51.406;-2.402;2023-05-21T08:19:37;101237.22;;;22.03;39.52
48882;BME280;57063;51.406;-2.402;2023-05-21T08:22:02;101237.91;;;22.05;37.89
48882;BME280;57063;51.406;-2.402;2023-05-21T08:24:28;101237.19;;;22.22;37.93
48882;BME280;57063;51.406;-2.402;2023-05-21T08:26:53;101230.69;;;22.17;39.06
48882;BME280;57063;51.406;-2.402;2023-05-21T08:29:18;101231.34;;;22.29;38.17
48882;BME280;57063;51.406;-2.402;2023-05-21T08:31:43;101230.44;;;21.53;39.07
48882;BME280;57063;51.406;-2.402;2023-05-21T08:34:09;101227.66;;;22.49;37.88
48882;BME280;57063;51.406;-2.402;2023-05-21T08:36:34;101230.66;;;21.70;39.89
48882;BME280;57063;51.406;-2.402;2023-05-21T08:39:00;101226.47;;;21.87;39.15
48882;BME280;57063;51.406;-2.402;2023-05-21T08:41:25;101231.41;;;21.99;39.57
48882;BME280;57063;51.406;-2.402;2023-05-21T08:43:54;101231.47;;;21.90;40.80
48882;BME280;57063;51.406;-2.402;2023-05-21T08:46:20;101236.06;;;22.15;39.58
48882;BME280;57063;51.406;-2.402;2023-05-21T08:48:47;101239.56;;;22.53;39.04
48882;BME280;57063;51.406;-2.402;2023-05-21T08:51:12;101230.06;;;22.60;38.71
48882;BME280;57063;51.406;-2.402;2023-05-21T08:53:37;101229.16;;;22.52;39.29
48882;BME280;57063;51.406;-2.402;2023-05-21T08:56:03;101236.16;;;23.42;38.51
48882;BME280;57063;51.406;-2.402;2023-05-21T08:58:30;101238.81;;;23.86;37.43
48882;BME280;57063;51.406;-2.402;2023-05-21T09:00:56;101236.03;;;23.70;38.13
48882;BME280;57063;51.406;-2.402;2023-05-21T09:03:21;101240.53;;;23.52;38.25
48882;BME280;57063;51.406;-2.402;2023-05-21T09:05:47;101243.63;;;23.11;38.56
48882;BME280;57063;51.406;-2.402;2023-05-21T09:08:26;101239.47;;;23.44;38.17
48882;BME280;57063;51.406;-2.402;2023-05-21T09:10:53;101240.63;;;23.06;40.91
48882;BME280;57063;51.406;-2.402;2023-05-21T09:13:19;101247.88;;;22.94;46.55
48882;BME280;57063;51.406;-2.402;2023-05-21T09:15:45;101235.78;;;23.37;47.54
48882;BME280;57063;51.406;-2.402;2023-05-21T09:18:10;101233.25;;;23.71;40.43
48882;BME280;57063;51.406;-2.402;2023-05-21T09:20:36;101236.94;;;23.79;38.43
48882;BME280;57063;51.406;-2.402;2023-05-21T09:23:02;101230.41;;;23.65;37.96
48882;BME280;57063;51.406;-2.402;2023-05-21T09:25:28;101236.16;;;23.42;36.34
48882;BME280;57063;51.406;-2.402;2023-05-21T09:27:54;101230.69;;;22.54;38.67
48882;BME280;57063;51.406;-2.402;2023-05-21T09:30:20;101227.38;;;22.25;38.43
48882;BME280;57063;51.406;-2.402;2023-05-21T09:32:47;101222.19;;;21.95;39.19
48882;BME280;57063;51.406;-2.402;2023-05-21T09:35:16;101220.72;;;21.34;42.85
48882;BME280;57063;51.406;-2.402;2023-05-21T09:37:42;101225.69;;;21.67;43.98
48882;BME280;57063;51.406;-2.402;2023-05-21T09:42:37;101214.63;;;22.93;38.98
48882;BME280;57063;51.406;-2.402;2023-05-21T09:45:03;101218.94;;;23.30;38.43
48882;BME280;57063;51.406;-2.402;2023-05-21T09:47:28;101218.63;;;23.33;37.47
48882;BME280;57063;51.406;-2.402;2023-05-21T09:49:56;101216.53;;;23.63;36.63
48882;BME280;57063;51.406;-2.402;2023-05-21T09:52:24;101209.94;;;24.11;37.49
48882;BME280;57063;51.406;-2.402;2023-05-21T09:54:50;101206.03;;;23.89;35.96
48882;BME280;57063;51.406;-2.402;2023-05-21T09:57:21;101203.75;;;23.68;37.68
48882;BME280;57063;51.406;-2.402;2023-05-21T09:59:48;101194.69;;;24.31;36.94
48882;BME280;57063;51.406;-2.402;2023-05-21T10:02:18;101203.31;;;23.55;38.97
48882;BME280;57063;51.406;-2.402;2023-05-21T10:04:44;101191.69;;;23.83;38.46
48882;BME280;57063;51.406;-2.402;2023-05-21T10:07:11;101195.59;;;23.79;37.99
48882;BME280;57063;51.406;-2.402;2023-05-21T10:09:37;101202.31;;;23.12;38.06
48882;BME280;57063;51.406;-2.402;2023-05-21T10:12:03;101202.03;;;23.59;39.10
48882;BME280;57063;51.406;-2.402;2023-05-21T10:14:28;101195.16;;;23.66;38.50
48882;BME280;57063;51.406;-2.402;2023-05-21T10:16:56;101194.97;;;24.20;37.91
48882;BME280;57063;51.406;-2.402;2023-05-21T10:19:21;101196.22;;;23.73;37.31
48882;BME280;57063;51.406;-2.402;2023-05-21T10:21:47;101197.69;;;24.95;35.36
48882;BME280;57063;51.406;-2.402;2023-05-21T10:24:13;101194.38;;;25.50;33.50
48882;BME280;57063;51.406;-2.402;2023-05-21T10:26:39;101192.66;;;24.59;34.29
48882;BME280;57063;51.406;-2.402;2023-05-21T10:29:05;101200.81;;;24.31;37.38
48882;BME280;57063;51.406;-2.402;2023-05-21T10:31:31;101190.28;;;23.53;37.23
48882;BME280;57063;51.406;-2.402;2023-05-21T10:33:57;101194.00;;;24.80;35.87
48882;BME280;57063;51.406;-2.402;2023-05-21T10:36:23;101183.25;;;24.48;36.67
48882;BME280;57063;51.406;-2.402;2023-05-21T10:38:49;101179.78;;;25.79;33.04
48882;BME280;57063;51.406;-2.402;2023-05-21T10:41:15;101182.75;;;26.32;33.13
48882;BME280;57063;51.406;-2.402;2023-05-21T11:00:00;101171.72;;;25.64;32.36
48882;BME280;57063;51.406;-2.402;2023-05-21T11:02:27;101166.19;;;25.98;33.13
48882;BME280;57063;51.406;-2.402;2023-05-21T11:05:02;101163.66;;;25.49;33.13
48882;BME280;57063;51.406;-2.402;2023-05-21T11:10:57;101161.94;;;25.81;33.54
48882;BME280;57063;51.406;-2.402;2023-05-21T11:13:07;101153.66;;;27.01;30.39
48882;BME280;57063;51.406;-2.402;2023-05-21T11:18:16;101154.66;;;25.83;32.68
48882;BME280;57063;51.406;-2.402;2023-05-21T11:20:43;101156.47;;;25.91;31.28
48882;BME280;57063;51.406;-2.402;2023-05-21T11:23:09;101158.47;;;25.72;31.87
48882;BME280;57063;51.406;-2.402;2023-05-21T11:25:35;101150.53;;;25.89;32.43
48882;BME280;57063;51.406;-2.402;2023-05-21T11:28:03;101151.75;;;26.40;32.73
48882;BME280;57063;51.406;-2.402;2023-05-21T11:30:29;101140.84;;;25.48;33.46
48882;BME280;57063;51.406;-2.402;2023-05-21T11:38:10;101149.31;;;25.99;31.77
48882;BME280;57063;51.406;-2.402;2023-05-21T11:40:35;101152.31;;;25.80;32.24
48882;BME280;57063;51.406;-2.402;2023-05-21T11:43:00;101144.78;;;25.69;33.71
48882;BME280;57063;51.406;-2.402;2023-05-21T11:45:29;101139.88;;;26.05;32.84
48882;BME280;57063;51.406;-2.402;2023-05-21T11:47:55;101133.88;;;25.63;33.35
48882;BME280;57063;51.406;-2.402;2023-05-21T11:50:20;101133.53;;;25.67;35.03
48882;BME280;57063;51.406;-2.402;2023-05-21T11:52:46;101138.19;;;26.12;33.16
48882;BME280;57063;51.406;-2.402;2023-05-21T11:55:12;101134.59;;;27.05;31.87
48882;BME280;57063;51.406;-2.402;2023-05-21T11:57:40;101132.97;;;27.04;31.75
48882;BME280;57063;51.406;-2.402;2023-05-21T12:00:05;101137.09;;;26.61;32.72
48882;BME280;57063;51.406;-2.402;2023-05-21T12:02:38;101136.09;;;26.31;33.37
48882;BME280;57063;51.406;-2.402;2023-05-21T12:05:03;101127.69;;;25.96;34.46
48882;BME280;57063;51.406;-2.402;2023-05-21T12:07:29;101128.63;;;26.03;34.11
48882;BME280;57063;51.406;-2.402;2023-05-21T12:09:54;101125.63;;;26.14;33.57
48882;BME280;57063;51.406;-2.402;2023-05-21T12:12:20;101120.03;;;26.63;34.21
48882;BME280;57063;51.406;-2.402;2023-05-21T12:14:49;101126.31;;;26.31;33.60
48882;BME280;57063;51.406;-2.402;2023-05-21T12:17:16;101130.38;;;25.88;32.31
48882;BME280;57063;51.406;-2.402;2023-05-21T12:19:41;101122.16;;;26.37;30.21
48882;BME280;57063;51.406;-2.402;2023-05-21T12:22:07;101129.94;;;26.07;33.25
48882;BME280;57063;51.406;-2.402;2023-05-21T12:24:33;101121.78;;;26.71;32.72
48882;BME280;57063;51.406;-2.402;2023-05-21T12:26:59;101124.09;;;25.80;32.47
48882;BME280;57063;51.406;-2.402;2023-05-21T12:29:26;101132.97;;;26.81;31.19
48882;BME280;57063;51.406;-2.402;2023-05-21T12:31:51;101122.69;;;26.63;30.38
48882;BME280;57063;51.406;-2.402;2023-05-21T12:34:35;101113.19;;;26.69;33.12
48882;BME280;57063;51.406;-2.402;2023-05-21T12:37:01;101119.06;;;26.79;31.47
48882;BME280;57063;51.406;-2.402;2023-05-21T12:39:26;101119.91;;;27.18;32.63
48882;BME280;57063;51.406;-2.402;2023-05-21T12:41:54;101117.03;;;27.27;32.11
48882;BME280;57063;51.406;-2.402;2023-05-21T12:44:19;101109.81;;;26.98;31.14
48882;BME280;57063;51.406;-2.402;2023-05-21T12:46:44;101096.19;;;27.54;30.92
48882;BME280;57063;51.406;-2.402;2023-05-21T12:49:29;101111.31;;;28.41;29.27
48882;BME280;57063;51.406;-2.402;2023-05-21T12:51:55;101109.34;;;27.62;30.07
48882;BME280;57063;51.406;-2.402;2023-05-21T12:54:24;101115.28;;;26.97;30.74
48882;BME280;57063;51.406;-2.402;2023-05-21T12:56:52;101102.06;;;27.11;31.44
48882;BME280;57063;51.406;-2.402;2023-05-21T12:59:17;101102.50;;;27.00;30.06
48882;BME280;57063;51.406;-2.402;2023-05-21T13:01:45;101098.56;;;25.48;34.04
48882;BME280;57063;51.406;-2.402;2023-05-21T13:04:11;101102.91;;;26.20;33.79
48882;BME280;57063;51.406;-2.402;2023-05-21T13:06:42;101101.16;;;25.73;32.54
48882;BME280;57063;51.406;-2.402;2023-05-21T13:09:07;101095.09;;;25.56;32.47
48882;BME280;57063;51.406;-2.402;2023-05-21T13:11:33;101093.66;;;25.93;33.02